Miami, Florida
Current Conditions -  °F | °C
As of 9:53 AM on Friday 19 Dec 2014 (Local Time) from KMIA Reporting Station
Few Clouds Few Clouds  
Wind Chill: 73°   Ceiling: Unl
Heat Index: 73°   Visibility: 10mi
Dew Point: 56°   Wind: 5mph
Humidity: 55%   Direction: NA
Pressure: 30.12"   Gusts: NA
Location:  25.77°N, 80.19°W
Report Text: KMIA 191453Z VRB04KT 10SM FEW030 FEW300 23/13 A3012 RMK AO2 SLP200 T02280133 51012
Loading
Personal Weather Stations






























Interactive Weather Map New forecast layout! Learn more

10-Day Weather Forecast

Advertisements
Track Severe Weather on mobile